Time;durP1;ratioP1;P1;durP2;ratioP2;P2;SDS_P1;SDS_P2;PMS_P1;PMS_P2;Temp;Humidity;BMP_temperature;BMP_pressure;BME280_temperature;BME280_humidity;BME280_pressure;Samples;Min_cycle;Max_cycle;Signal;HPM_P1;HPM_P2
2023/05/16 00:01:03;;;;;;;42.63;33.65;;;27.00;99.90;;;;;;5034392;28;20115;-67
2023/05/16 00:03:30;;;;;;;28.67;20.25;;;26.90;99.90;;;;;;5036710;28;20044;-67
2023/05/16 00:05:58;;;;;;;22.00;18.13;;;27.00;99.90;;;;;;5036685;28;20034;-67
2023/05/16 00:08:25;;;;;;;28.20;19.50;;;27.00;99.90;;;;;;5036748;28;20041;-67
2023/05/16 00:10:51;;;;;;;29.35;22.27;;;27.00;99.90;;;;;;5036661;28;20029;-67
2023/05/16 00:13:23;;;;;;;34.63;22.83;;;26.90;99.90;;;;;;5036515;28;20393;-66
2023/05/16 00:15:51;;;;;;;32.72;22.67;;;27.00;99.90;;;;;;5036860;28;20382;-67
2023/05/16 00:18:18;;;;;;;28.17;22.52;;;27.00;99.90;;;;;;5036682;28;20032;-67
2023/05/16 00:20:44;;;;;;;35.40;24.15;;;26.90;99.90;;;;;;5036508;28;20183;-67
2023/05/16 00:23:11;;;;;;;65.65;45.15;;;27.00;99.90;;;;;;5036692;28;20045;-67
2023/05/16 00:25:38;;;;;;;30.15;21.60;;;27.00;99.90;;;;;;5036462;28;20032;-68
2023/05/16 00:28:05;;;;;;;29.30;20.67;;;27.10;99.90;;;;;;5036214;28;20037;-67
2023/05/16 00:30:31;;;;;;;22.30;19.50;;;27.10;99.90;;;;;;5031879;28;20029;-67
2023/05/16 00:32:58;;;;;;;23.38;20.23;;;27.10;99.90;;;;;;5025708;28;20509;-67
2023/05/16 00:35:25;;;;;;;25.55;20.15;;;27.30;99.90;;;;;;5036163;28;20524;-66
2023/05/16 00:37:51;;;;;;;67.03;46.55;;;27.20;99.90;;;;;;5036479;28;20035;-67
2023/05/16 00:40:18;;;;;;;180.45;129.75;;;27.20;99.90;;;;;;5036644;28;20048;-66
2023/05/16 00:42:45;;;;;;;139.48;105.15;;;27.30;99.90;;;;;;5036309;28;20497;-66
2023/05/16 00:45:11;;;;;;;117.05;94.68;;;27.40;99.90;;;;;;5036209;28;20041;-71
2023/05/16 00:47:38;;;;;;;64.43;48.03;;;27.60;99.90;;;;;;5036187;28;20048;-65
2023/05/16 00:50:07;;;;;;;141.15;100.65;;;;;;;;;;5036146;28;20060;-66
2023/05/16 00:52:34;;;;;;;52.92;33.50;;;;;;;;;;5035870;28;20026;-68
2023/05/16 00:55:02;;;;;;;27.42;21.38;;;;;;;;;;5036066;28;20032;-67
2023/05/16 00:57:29;;;;;;;25.40;19.85;;;;;;;;;;5035952;28;20537;-66
2023/05/16 00:59:56;;;;;;;21.00;17.88;;;;;;;;;;5035715;28;20444;-67
2023/05/16 01:02:27;;;;;;;25.08;17.13;;;;;;;;;;5035885;28;20079;-67
2023/05/16 01:04:54;;;;;;;23.70;20.00;;;;;;;;;;5035816;28;20030;-67
2023/05/16 01:07:20;;;;;;;22.77;17.83;;;;;;;;;;5035869;28;20025;-66
2023/05/16 01:09:47;;;;;;;20.83;17.88;;;;;;;;;;5035794;28;20148;-67
2023/05/16 01:12:37;;;;;;;27.75;19.77;;;;;;;;;;5034663;28;20083;-66
2023/05/16 01:15:14;;;;;;;21.42;18.38;;;;;;;;;;5025235;28;20522;-67
2023/05/16 01:17:45;;;;;;;46.17;28.63;;;;;;;;;;5035416;28;20057;-67
2023/05/16 01:20:14;;;;;;;49.25;34.08;;;;;;;;;;5035462;28;20021;-67
2023/05/16 01:22:47;;;;;;;34.85;24.63;;;;;;;;;;5035417;28;20033;-67
2023/05/16 01:25:33;;;;;;;35.35;23.90;;;;;;;;;;5022582;28;20037;-71
2023/05/16 01:28:02;;;;;;;24.60;17.88;;;;;;;;;;5017842;28;20026;-67
2023/05/16 01:30:34;;;;;;;25.08;17.55;;;;;;;;;;5028228;28;20040;-67
2023/05/16 01:33:00;;;;;;;21.67;17.65;;;;;;;;;;5035107;28;20037;-66
2023/05/16 01:35:27;;;;;;;25.33;17.33;;;;;;;;;;5035209;28;20021;-65
2023/05/16 01:37:55;;;;;;;25.38;17.80;;;;;;;;;;5035362;28;20160;-68
2023/05/16 01:40:27;;;;;;;33.33;19.67;;;;;;;;;;5035207;28;20037;-67
2023/05/16 01:42:54;;;;;;;24.15;17.80;;;;;;;;;;5034994;28;20029;-66
2023/05/16 01:45:29;;;;;;;25.00;17.95;;;;;;;;;;5035028;28;20025;-67
2023/05/16 01:48:04;;;;;;;34.10;19.33;;;;;;;;;;5035040;28;20175;-67
2023/05/16 01:50:32;;;;;;;22.10;16.42;;;;;;;;;;5034916;28;20083;-68
2023/05/16 01:53:02;;;;;;;23.50;15.93;;;;;;;;;;5034881;28;20030;-69
2023/05/16 01:55:30;;;;;;;22.25;16.02;;;;;;;;;;5034593;28;20379;-68
2023/05/16 01:57:58;;;;;;;24.08;16.15;;;;;;;;;;5035021;28;20104;-72
2023/05/16 02:00:25;;;;;;;26.00;16.90;;;;;;;;;;5034787;28;20036;-67
2023/05/16 02:02:52;;;;;;;25.58;17.25;;;;;;;;;;5034620;28;20052;-67
2023/05/16 02:05:19;;;;;;;31.05;18.38;;;;;;;;;;5034539;28;20041;-67
2023/05/16 02:07:45;;;;;;;29.13;18.17;;;;;;;;;;5034604;28;20021;-68
2023/05/16 02:10:13;;;;;;;28.50;18.27;;;;;;;;;;5034404;28;20478;-70
2023/05/16 02:12:39;;;;;;;29.83;17.35;;;;;;;;;;5034790;28;20029;-68
2023/05/16 02:15:06;;;;;;;28.90;19.27;;;;;;;;;;5034387;28;20487;-66
2023/05/16 02:17:33;;;;;;;31.55;19.58;;;;;;;;;;5033673;28;20033;-66
2023/05/16 02:20:05;;;;;;;33.88;19.85;;;;;;;;;;5032521;28;20028;-65
2023/05/16 02:22:32;;;;;;;;;;;;;;;;;;5033227;28;20033;-67
2023/05/16 02:24:58;;;;;;;26.88;16.90;;;;;;;;;;5034047;28;19912;-67
2023/05/16 02:27:25;;;;;;;29.83;18.55;;;;;;;;;;5034368;28;20394;-66
2023/05/16 02:29:51;;;;;;;36.70;20.52;;;;;;;;;;5034266;28;20029;-66
2023/05/16 02:32:18;;;;;;;36.00;24.98;;;;;;;;;;5033983;28;20029;-66
2023/05/16 02:34:45;;;;;;;68.40;48.13;;;;;;;;;;5034118;28;20478;-66
2023/05/16 02:37:11;;;;;;;31.60;19.42;;;;;;;;;;5034237;28;20029;-66
2023/05/16 02:39:38;;;;;;;31.52;16.92;;;;;;;;;;5034209;28;20044;-65
2023/05/16 02:42:05;;;;;;;28.42;18.70;;;;;;;;;;5034351;28;20030;-68
2023/05/16 02:44:32;;;;;;;38.78;19.05;;;;;;;;;;5033931;28;20493;-66
2023/05/16 02:46:58;;;;;;;24.73;16.40;;;;;;;;;;5033839;28;20083;-65
2023/05/16 02:49:25;;;;;;;22.70;16.38;;;;;;;;;;5033927;28;20072;-66
2023/05/16 02:51:52;;;;;;;31.45;19.75;;;;;;;;;;5033720;28;20021;-65
2023/05/16 02:54:18;;;;;;;53.88;36.55;;;;;;;;;;5033876;28;20041;-65
2023/05/16 02:56:45;;;;;;;39.53;26.65;;;;;;;;;;5033670;28;20017;-66
2023/05/16 02:59:12;;;;;;;34.35;25.05;;;;;;;;;;5033991;28;20024;-66
2023/05/16 03:01:38;;;;;;;171.68;114.20;;;;;;;;;;5033816;28;20018;-66
2023/05/16 03:04:05;;;;;;;50.95;32.22;;;;;;;;;;5033498;28;20462;-65
2023/05/16 03:06:32;;;;;;;23.10;18.10;;;;;;;;;;5033718;28;20494;-66
2023/05/16 03:08:58;;;;;;;27.20;16.85;;;;;;;;;;5033715;28;20044;-66
2023/05/16 03:11:25;;;;;;;23.73;16.25;;;;;;;;;;5033369;28;20022;-66
2023/05/16 03:13:52;;;;;;;28.83;16.60;;;;;;;;;;5033455;28;20039;-65
2023/05/16 03:16:18;;;;;;;72.25;43.13;;;;;;;;;;5033516;28;20043;-65
2023/05/16 03:18:45;;;;;;;41.63;25.60;;;;;;;;;;5033329;28;20018;-66
2023/05/16 03:21:12;;;;;;;30.02;21.20;;;;;;;;;;5033465;28;20025;-67
2023/05/16 03:23:38;;;;;;;118.95;79.55;;;;;;;;;;5033548;28;20087;-66
2023/05/16 03:26:06;;;;;;;53.17;33.67;;;;;;;;;;5025323;28;20621;-65
2023/05/16 03:28:33;;;;;;;29.92;17.73;;;;;;;;;;5021785;28;20033;-67
2023/05/16 03:30:59;;;;;;;22.98;15.40;;;;;;;;;;5014273;28;20437;-65
2023/05/16 03:33:26;;;;;;;30.63;17.17;;;;;;;;;;5017779;28;20021;-65
2023/05/16 03:35:52;;;;;;;26.13;15.07;;;;;;;;;;5024772;28;20026;-64
2023/05/16 03:38:20;;;;;;;26.83;15.18;;;;;;;;;;5033491;28;20051;-64
2023/05/16 03:40:47;;;;;;;31.17;23.23;;;;;;;;;;5032892;28;20075;-64
2023/05/16 03:43:13;;;;;;;26.83;17.10;;;;;;;;;;5033428;28;20037;-65
2023/05/16 03:45:40;;;;;;;20.33;15.05;;;;;;;;;;5033385;28;20025;-64
2023/05/16 03:48:08;;;;;;;21.02;15.52;;;;;;;;;;5032937;28;20368;-63
2023/05/16 03:50:36;;;;;;;21.50;15.90;;;;;;;;;;5033130;28;20048;-63
2023/05/16 03:53:03;;;;;;;23.65;16.85;;;;;;;;;;5032997;28;20092;-65
2023/05/16 03:55:30;;;;;;;24.55;16.73;;;;;;;;;;5033114;28;20026;-64
2023/05/16 03:57:57;;;;;;;23.13;14.82;;;;;;;;;;5033388;28;20032;-65
2023/05/16 04:00:23;;;;;;;23.42;16.02;;;;;;;;;;5033107;28;20057;-65
2023/05/16 04:02:50;;;;;;;22.38;14.43;;;;;;;;;;5033247;28;20429;-64
2023/05/16 04:05:17;;;;;;;23.90;14.90;;;;;;;;;;5033164;28;20485;-64
2023/05/16 04:07:43;;;;;;;20.80;15.63;;;;;;;;;;5033132;28;20026;-64
2023/05/16 04:10:10;;;;;;;24.70;15.30;;;;;;;;;;5032886;28;20442;-65
2023/05/16 04:12:37;;;;;;;25.83;15.55;;;;;;;;;;5033153;28;20022;-64
2023/05/16 04:15:04;;;;;;;22.17;15.15;;;;;;;;;;5033065;28;20040;-64
2023/05/16 04:17:31;;;;;;;25.23;15.93;;;;;;;;;;5032758;28;20026;-65
2023/05/16 04:19:57;;;;;;;21.60;15.35;;;;;;;;;;5032973;28;20028;-64
2023/05/16 04:22:24;;;;;;;23.63;14.57;;;;;;;;;;5033050;28;20040;-64
2023/05/16 04:24:51;;;;;;;17.20;14.68;;;;;;;;;;5032912;28;20454;-65
2023/05/16 04:27:18;;;;;;;25.75;14.77;;;;;;;;;;5032806;28;20091;-64
2023/05/16 04:29:44;;;;;;;25.48;15.50;;;;;;;;;;5032923;28;20129;-64
2023/05/16 04:32:11;;;;;;;26.23;14.45;;;;;;;;;;5033033;28;20466;-64
2023/05/16 04:34:37;;;;;;;22.65;15.05;;;;;;;;;;5032811;28;20061;-64
2023/05/16 04:37:06;;;;;;;21.38;14.90;;;;;;;;;;5032807;28;20163;-65
2023/05/16 04:39:33;;;;;;;25.52;14.85;;;;;;;;;;5032354;28;20562;-65
2023/05/16 04:42:00;;;;;;;21.98;14.75;;;;;;;;;;5032478;28;20025;-64
2023/05/16 04:44:27;;;;;;;26.55;15.18;;;;;;;;;;5032537;28;20386;-65
2023/05/16 04:46:54;;;;;;;22.75;13.95;;;;;;;;;;5032710;28;20025;-65
2023/05/16 04:49:21;;;;;;;24.38;14.00;;;;;;;;;;5035751;28;20030;-64
2023/05/16 04:51:48;;;;;;;18.60;14.07;;;;;;;;;;5028722;28;20033;-64
2023/05/16 04:54:15;;;;;;;20.63;13.43;;;;;;;;;;5036168;28;20052;-64
2023/05/16 04:56:42;;;;;;;20.88;12.90;;;;;;;;;;5036312;28;20022;-64
2023/05/16 04:59:08;;;;;;;18.83;13.88;;;;;;;;;;5035842;28;20029;-65
2023/05/16 05:01:35;;;;;;;18.60;14.10;;;;;;;;;;5036136;28;20025;-66
2023/05/16 05:04:02;;;;;;;19.20;12.95;;;;;;;;;;5035927;28;20441;-64
2023/05/16 05:06:29;;;;;;;19.98;13.07;;;;;;;;;;5035690;28;20021;-65
2023/05/16 05:08:55;;;;;;;21.98;14.23;;;;;;;;;;5035856;28;20478;-65
2023/05/16 05:11:22;;;;;;;18.92;13.00;;;;;;;;;;5035721;28;20026;-64
2023/05/16 05:13:49;;;;;;;19.83;13.07;;;;;;;;;;5035927;28;20041;-64
2023/05/16 05:16:15;;;;;;;18.65;13.13;;;;;;;;;;5036859;28;20032;-64
2023/05/16 05:18:43;;;;;;;21.02;13.45;;;;;;;;;;5035661;28;20518;-65
2023/05/16 05:21:09;;;;;;;15.80;12.23;;;;;;;;;;5032714;28;20431;-64
2023/05/16 05:23:36;;;;;;;18.80;11.98;;;;;;;;;;5034422;28;20021;-64
2023/05/16 05:26:03;;;;;;;18.30;12.93;;;;;;;;;;5034163;28;20096;-65
2023/05/16 05:28:29;;;;;;;24.67;12.50;;;;;;;;;;5034452;28;20017;-66
2023/05/16 05:30:56;;;;;;;20.48;12.45;;;;;;;;;;5034385;28;20382;-64
2023/05/16 05:33:28;;;;;;;15.60;12.85;;;;;;;;;;5033974;28;20033;-64
2023/05/16 05:35:55;;;;;;;21.65;12.88;;;;;;;;;;5034101;28;20067;-64
2023/05/16 05:38:21;;;;;;;19.35;12.40;;;;;;;;;;5034744;28;20029;-64
2023/05/16 05:40:48;;;;;;;22.65;14.38;;;;;;;;;;5034100;28;20041;-65
2023/05/16 05:43:15;;;;;;;19.83;13.00;;;;;;;;;;5034585;28;20567;-65
2023/05/16 05:45:41;;;;;;;21.77;13.73;;;;;;;;;;5034537;28;20283;-65
2023/05/16 05:48:09;;;;;;;26.27;14.30;;;;;;;;;;5034330;28;20026;-65
2023/05/16 05:50:36;;;;;;;18.75;13.05;;;;;;;;;;5031898;28;20068;-65
2023/05/16 05:53:03;;;;;;;18.33;13.98;;;;;;;;;;5034471;28;20033;-65
2023/05/16 05:55:30;;;;;;;25.30;13.30;;;;;;;;;;5034877;28;20014;-65
2023/05/16 05:57:56;;;;;;;20.70;13.48;;;;;;;;;;5034963;28;20021;-65
2023/05/16 06:00:23;;;;;;;20.13;14.32;;;;;;;;;;5034153;28;20036;-65
2023/05/16 06:02:50;;;;;;;24.85;14.38;;;;;;;;;;5034218;28;20025;-68
2023/05/16 06:05:17;;;;;;;24.20;13.95;;;;;;;;;;5034051;28;20053;-67
2023/05/16 06:07:43;;;;;;;19.65;14.23;;;;;;;;;;5033212;28;20017;-65
2023/05/16 06:10:10;;;;;;;17.48;13.68;;;;;;;;;;5033551;28;20063;-70
2023/05/16 06:12:37;;;;;;;21.45;14.15;;;;;;;;;;5032751;28;20026;-68
2023/05/16 06:15:04;;;;;;;20.45;14.07;;;;;;;;;;5032598;28;20497;-67
2023/05/16 06:17:30;;;;;;;17.40;12.80;;;;;;;;;;5032395;28;20021;-67
2023/05/16 06:19:57;;;;;;;21.75;13.25;;;;;;;;;;5032521;28;20051;-69
2023/05/16 06:22:23;;;;;;;20.58;14.25;;;;;;;;;;5032907;28;20029;-69
2023/05/16 06:24:50;;;;;;;18.58;13.07;;;;;;;;;;5033182;28;20032;-70
2023/05/16 06:27:17;;;;;;;20.67;13.07;;;;;;;;;;5033364;28;20174;-69
2023/05/16 06:29:43;;;;;;;21.65;13.65;;;;;;;;;;5033909;28;20106;-69
2023/05/16 06:32:10;;;;;;;20.15;13.95;;;;;;;;;;5034104;28;20382;-69
2023/05/16 06:34:36;;;;;;;20.02;13.68;;;;;;;;;;5033893;28;20021;-69
2023/05/16 06:37:03;;;;;;;18.58;13.27;;;;;;;;;;5033967;28;20092;-68
2023/05/16 06:39:30;;;;;;;20.67;13.15;;;;;;;;;;5033827;28;20041;-68
2023/05/16 06:41:56;;;;;;;19.55;13.77;;;;;;;;;;5033733;28;20025;-66
2023/05/16 06:44:23;;;;;;;16.55;12.75;;;;;;;;;;5033857;28;20024;-66
2023/05/16 06:46:50;;;;;;;17.42;12.27;;;;;;;;;;5033871;28;20045;-66
2023/05/16 06:49:17;;;;;;;15.77;13.13;;;;;;;;;;5033575;28;20021;-67
2023/05/16 06:51:43;;;;;;;14.65;12.50;;;;;;;;;;5033677;28;20025;-67
2023/05/16 06:54:10;;;;;;;17.17;12.07;;;;;;;;;;5033755;28;20071;-67
2023/05/16 06:56:37;;;;;;;18.73;13.48;;;;;;;;;;5033355;28;20021;-66
2023/05/16 06:59:03;;;;;;;20.55;13.02;;;;;;;;;;5033491;28;20053;-66
2023/05/16 07:01:30;;;;;;;17.90;12.50;;;;;;;;;;5033817;28;20147;-66
2023/05/16 07:03:56;;;;;;;18.60;13.32;;;;;;;;;;5033264;28;20386;-67
2023/05/16 07:06:23;;;;;;;15.40;12.18;;;;;;;;;;5033640;28;20029;-67
2023/05/16 07:08:50;;;;;;;18.15;12.65;;;;;;;;;;5033421;28;20036;-67
2023/05/16 07:11:16;;;;;;;17.65;12.32;;;;;;;;;;5032473;28;20167;-67
2023/05/16 07:13:43;;;;;;;20.15;11.18;;;;;;;;;;5033390;28;20022;-67
2023/05/16 07:16:10;;;;;;;17.42;12.35;;;;;;;;;;5033423;28;20052;-67
2023/05/16 07:18:36;;;;;;;16.67;11.38;;;;;;;;;;5033108;28;20382;-66
2023/05/16 07:21:03;;;;;;;22.60;12.98;;;;;;;;;;5033454;28;20040;-69
2023/05/16 07:23:30;;;;;;;23.48;13.35;;;;;;;;;;5033253;28;20490;-67
2023/05/16 07:25:56;;;;;;;17.45;11.98;;;;;;;;;;5033364;28;20028;-67
2023/05/16 07:28:23;;;;;;;21.65;12.95;;;;;;;;;;5033157;28;20433;-68
2023/05/16 07:30:50;;;;;;;17.50;11.68;;;;;;;;;;5033407;28;20026;-67
2023/05/16 07:33:16;;;;;;;17.85;12.10;;;;;;;;;;5032925;28;20116;-67
2023/05/16 07:35:43;;;;;;;15.80;11.45;;;;;;;;;;5033205;28;20504;-66
2023/05/16 07:38:10;;;;;;;17.05;11.27;;;;;;;;;;5033199;28;20029;-66
2023/05/16 07:40:37;;;;;;;15.35;10.85;;;;;;;;;;5032755;28;20053;-66
2023/05/16 07:43:03;;;;;;;20.92;11.60;;;;;;;;;;5033020;28;20025;-67
2023/05/16 07:45:30;;;;;;;17.58;11.05;;;;;;;;;;5033238;28;20104;-67
2023/05/16 07:47:57;;;;;;;15.80;10.82;;;;;;;;;;5033249;28;20036;-67
2023/05/16 07:50:24;;;;;;;19.73;12.35;;;;;;;;;;5033111;28;20091;-67
2023/05/16 07:52:51;;;;;;;20.25;10.50;;;;;;;;;;5032855;28;20034;-67
2023/05/16 07:55:18;;;;;;;29.23;11.38;;;;;;;;;;5032435;28;20444;-67
2023/05/16 07:57:44;;;;;;;260.45;210.05;;;;;;;;;;5032803;28;20021;-68
2023/05/16 08:00:11;;;;;;;32.90;19.88;;;;;;;;;;5033049;28;20022;-67
2023/05/16 08:02:38;;;;;;;19.30;10.02;;;;;;;;;;5033374;28;20432;-65
2023/05/16 08:05:05;;;;;;;17.27;10.88;;;;;;;;;;5033611;28;20032;-65
2023/05/16 08:07:31;;;;;;;13.35;9.77;;;;;;;;;;5034127;28;20021;-65
2023/05/16 08:09:58;;;;;;;13.07;8.85;;;;;;;;;;5034106;28;20032;-66
2023/05/16 08:12:26;;;;;;;14.52;9.85;;;;;;;;;;5034167;28;20030;-67
2023/05/16 08:14:52;;;;;;;16.27;9.68;;;;;;;;;;5034170;28;20033;-67
2023/05/16 08:17:19;;;;;;;16.65;10.30;;;;;;;;;;5031761;28;20022;-66
2023/05/16 08:19:46;;;;;;;12.20;9.40;;;;;;;;;;5022871;28;20030;-65
2023/05/16 08:22:12;;;;;;;12.13;9.88;;;;;;;;;;5015296;28;20032;-66
2023/05/16 08:24:39;;;;;;;16.33;9.90;;;;;;;;;;5016769;28;20029;-66
2023/05/16 08:27:06;;;;;;;19.73;10.38;;;;;;;;;;5016788;28;20030;-65
2023/05/16 08:29:32;;;;;;;18.77;9.50;;;;;;;;;;5019202;28;20049;-64
2023/05/16 08:31:59;;;;;;;15.98;10.90;;;;;;;;;;5025547;28;20033;-66
2023/05/16 08:34:25;;;;;;;19.20;13.07;;;;;;;;;;5016524;28;20033;-66
2023/05/16 08:36:53;;;;;;;18.70;12.27;;;;;;;;;;5017056;28;20033;-66
2023/05/16 08:39:20;;;;;;;15.52;11.07;;;;;;;;;;5016839;28;20453;-66
2023/05/16 08:41:46;;;;;;;14.88;10.57;;;;;;;;;;5016734;28;20028;-67
2023/05/16 08:44:20;;;;;;;14.63;10.77;;;;;;;;;;5016547;28;20025;-67
2023/05/16 08:46:50;;;;;;;15.30;9.65;;;;;;;;;;5016831;28;20034;-65
2023/05/16 08:49:17;;;;;;;11.82;9.75;;;;;;;;;;5020919;28;20482;-65
2023/05/16 08:51:46;;;;;;;16.15;10.43;;;;;;;;;;5023931;28;20498;-66
2023/05/16 08:54:13;;;;;;;19.73;10.43;;;;;;;;;;5016860;28;20035;-66
2023/05/16 08:56:43;;;;;;;17.73;11.00;;;;;;;;;;5016604;28;20076;-67
2023/05/16 08:59:10;;;;;;;16.05;11.38;;;;;;;;;;5016324;28;20026;-67
2023/05/16 09:01:37;;;;;;;17.90;11.73;;;;;;;;;;5016280;28;20026;-67
2023/05/16 09:04:05;;;;;;;18.83;10.98;;;;;;;;;;5016199;28;20022;-67
2023/05/16 09:06:32;;;;;;;19.23;12.43;;;;;;;;;;5016264;28;20533;-67
2023/05/16 09:08:58;;;;;;;72.10;58.25;;;;;;;;;;5016066;28;20081;-67
2023/05/16 09:11:25;;;;;;;31.58;22.95;;;;;;;;;;5015962;28;20176;-67
2023/05/16 09:13:52;;;;;;;17.95;14.05;;;;;;;;;;5016060;28;20022;-67
2023/05/16 09:16:19;;;;;;;42.30;29.83;;;;;;;;;;5015935;28;20080;-67
2023/05/16 09:18:53;;;;;;;31.08;18.50;;;;;;;;;;5015797;28;20045;-67
2023/05/16 09:21:19;;;;;;;21.40;14.43;;;;;;;;;;5015943;28;20022;-67
2023/05/16 09:23:48;;;;;;;22.15;12.95;;;;;;;;;;5016199;28;20030;-65
2023/05/16 09:26:15;;;;;;;18.13;11.75;;;;;;;;;;5051344;28;20041;-67
2023/05/16 09:28:43;;;;;;;17.13;13.45;;;;;;;;;;5055405;28;20428;-67
2023/05/16 09:31:21;;;;;;;16.58;11.15;;;;;;;;;;5055208;28;20393;-66
2023/05/16 09:33:49;;;;;;;23.35;15.07;;;;;;;;;;5050712;28;20116;-67
2023/05/16 09:36:16;;;;;;;21.13;13.23;;;;;;;;;;5036560;28;20024;-66
2023/05/16 09:38:43;;;;;;;19.42;13.13;;;;;;;;;;5051405;28;20036;-66
2023/05/16 09:41:10;;;;;;;30.25;18.80;;;;;;;;;;5020251;28;20378;-66
2023/05/16 09:43:39;;;;;;;65.88;39.88;;;;;;;;;;5015416;28;20022;-68
2023/05/16 09:46:05;;;;;;;46.83;30.10;;;;;;;;;;5015133;28;20026;-66
2023/05/16 09:48:33;;;;;;;38.80;27.70;;;;;;;;;;5015415;28;20022;-67
2023/05/16 09:51:03;;;;;;;63.03;49.28;;;;;;;;;;5015393;28;20026;-68
2023/05/16 09:53:32;;;;;;;66.65;44.45;;;;;;;;;;5017827;28;20038;-68
2023/05/16 09:56:07;;;;;;;28.77;19.77;;;;;;;;;;5025994;28;20093;-68
2023/05/16 09:58:34;;;;;;;31.80;20.48;;;;;;;;;;5015190;28;20463;-67
2023/05/16 10:01:01;;;;;;;35.75;21.70;;;;;;;;;;5029303;28;20028;-67
2023/05/16 10:03:29;;;;;;;30.45;18.35;;;;;;;;;;5023663;28;20478;-66
2023/05/16 10:05:56;;;;;;;23.35;15.15;;;;;;;;;;5014872;28;20108;-66
2023/05/16 10:08:23;;;;;;;41.30;26.15;;;;;;;;;;5028952;28;20120;-66
2023/05/16 10:10:51;;;;;;;42.30;22.75;;;;;;;;;;5035131;28;20022;-66
2023/05/16 10:13:20;;;;;;;35.88;22.55;;;;;;;;;;5034800;28;20025;-66
2023/05/16 10:15:48;;;;;;;25.02;15.85;;;;;;;;;;5031791;28;20026;-66
2023/05/16 10:18:17;;;;;;;25.08;15.23;;;;;;;;;;5015361;28;20030;-66
2023/05/16 10:20:45;;;;;;;16.95;12.65;;;;;;;;;;5015110;28;20029;-66
2023/05/16 10:23:16;;;;;;;23.50;14.77;;;;;;;;;;5015015;28;20092;-64
2023/05/16 10:25:44;;;;;;;20.23;13.60;;;;;;;;;;5014747;28;20025;-65
2023/05/16 10:28:11;;;;;;;17.77;14.13;;;;;;;;;;5014485;28;20026;-68
2023/05/16 10:30:40;;;;;;;20.58;14.45;;;;;;;;;;5015019;28;20368;-67
2023/05/16 10:33:07;;;;;;;19.67;14.43;;;;;;;;;;5015013;28;20022;-68
2023/05/16 10:35:34;;;;;;;22.75;14.13;;;;;;;;;;5014755;28;20467;-66
2023/05/16 10:38:01;;;;;;;29.25;14.35;;;;;;;;;;5014734;28;20037;-68
2023/05/16 10:40:29;;;;;;;19.30;14.13;;;;;;;;;;5017083;28;20045;-69
2023/05/16 10:43:00;;;;;;;19.23;12.75;;;;;;;;;;5021492;28;20383;-67
2023/05/16 10:45:27;;;;;;;22.73;16.35;;;;;;;;;;5026481;28;20497;-66
2023/05/16 10:47:57;;;;;;;29.05;19.05;;;;;;;;;;5034257;28;20030;-65
2023/05/16 10:50:36;;;;;;;31.33;20.55;;;;;;;;;;5034099;28;20041;-67
2023/05/16 10:53:13;;;;;;;36.25;20.80;;;;;;;;;;5029424;28;20498;-66
2023/05/16 10:55:40;;;;;;;30.50;19.45;;;;;;;;;;5022973;28;20025;-65
2023/05/16 10:58:07;;;;;;;31.65;21.38;;;;;;;;;;5014168;28;20471;-67
2023/05/16 11:00:34;;;;;;;34.92;22.05;;;;;;;;;;5014095;28;20630;-67
2023/05/16 11:03:22;;;;;;;32.80;20.98;;;;;;;;;;5013406;28;20676;-67
2023/05/16 11:05:52;;;;;;;34.95;21.00;;;;;;;;;;5014096;28;20038;-67
2023/05/16 11:08:19;;;;;;;32.40;21.02;;;;;;;;;;5014025;28;20384;-66
2023/05/16 11:10:46;;;;;;;34.22;21.88;;;;;;;;;;5016261;28;20029;-66
2023/05/16 11:13:18;;;;;;;41.28;24.15;;;;;;;;;;5022227;28;20050;-65
2023/05/16 11:15:45;;;;;;;40.58;23.88;;;;;;;;;;5013895;28;20034;-66
2023/05/16 11:18:15;;;;;;;45.55;26.35;;;;;;;;;;5025270;28;20033;-67
2023/05/16 11:20:42;;;;;;;52.17;29.48;;;;;;;;;;5070788;23;20076;-66
2023/05/16 11:23:20;;;;;;;65.30;38.80;;;;;;;;;;5073785;28;20029;-67
2023/05/16 11:25:49;;;;;;;156.20;86.30;;;;;;;;;;5073322;28;20492;-67
2023/05/16 11:28:18;;;;;;;161.63;86.55;;;;;;;;;;5073480;28;20028;-66
2023/05/16 11:30:45;;;;;;;77.95;40.65;;;;;;;;;;5073512;28;20032;-66
2023/05/16 11:33:12;;;;;;;67.30;35.35;;;;;;;;;;5073599;28;20050;-63
2023/05/16 11:35:39;;;;;;;51.33;29.92;;;;;;;;;;5073597;28;20382;-66
2023/05/16 11:38:06;;;;;;;48.40;29.08;;;;;;;;;;5072973;28;20389;-67
2023/05/16 11:40:33;;;;;;;40.85;26.75;;;;;;;;;;5057280;28;20025;-66
2023/05/16 11:43:02;;;;;;;40.30;25.05;;;;;;;;;;5053137;28;20021;-67
2023/05/16 11:45:29;;;;;;;23.77;16.27;;;;;;;;;;5053040;28;20053;-69
2023/05/16 11:48:02;;;;;;;34.08;21.02;;;;;;;;;;5052374;28;20021;-67
2023/05/16 11:50:29;;;;;;;30.02;19.20;;;;;;;;;;5044110;28;20548;-66
2023/05/16 11:52:56;;;;;;;36.22;20.75;;;;;;;;;;5033490;28;20036;-67
2023/05/16 11:55:25;;;;;;;31.90;20.17;;;;;;;;;;5032474;28;20097;-69
2023/05/16 11:57:52;;;;;;;32.80;21.48;;;;;;;;;;5036533;28;20101;-68
2023/05/16 12:00:20;;;;;;;34.53;21.13;;;;;;;;;;5053004;28;20112;-68
2023/05/16 12:02:48;;;;;;;25.95;18.52;;;;;;;;;;5054054;28;20071;-65
2023/05/16 12:05:15;;;;;;;101.50;68.68;;;;;;;;;;5054671;28;20036;-67
2023/05/16 12:07:44;;;;;;;53.00;31.92;;;;;;;;;;5050308;28;20409;-67
2023/05/16 12:10:12;;;;;;;50.63;35.97;;;;;;;;;;5042603;28;20035;-67
2023/05/16 12:12:39;;;;;;;145.90;99.13;;;;;;;;;;5049471;28;20060;-66
2023/05/16 12:15:07;;;;;;;49.75;32.00;;;;;;;;;;5051902;28;20043;-66
2023/05/16 12:17:34;;;;;;;27.65;17.27;;;;;;;;;;5053456;28;20083;-67
2023/05/16 12:20:03;;;;;;;26.02;17.55;;;;;;;;;;5052474;28;20398;-66
2023/05/16 12:22:30;;;;;;;29.50;17.25;;;;;;;;;;5052943;28;20029;-65
2023/05/16 12:24:59;;;;;;;26.00;15.30;;;;;;;;;;5054249;28;20029;-67
2023/05/16 12:27:27;;;;;;;59.63;47.03;;;;;;;;;;5051718;28;20500;-67
2023/05/16 12:29:53;;;;;;;72.78;54.67;;;;;;;;;;5052735;28;21039;-64
2023/05/16 12:32:21;;;;;;;87.72;61.90;;;;;;;;;;5052278;28;20120;-66
2023/05/16 12:34:50;;;;;;;58.10;39.60;;;;;;;;;;5050746;28;20039;-66
2023/05/16 12:37:17;;;;;;;65.18;40.45;;;;;;;;;;5053788;28;20100;-65
2023/05/16 12:39:46;;;;;;;27.73;18.50;;;;;;;;;;5051441;28;20120;-67
2023/05/16 12:42:13;;;;;;;26.63;16.42;;;;;;;;;;5051983;28;20031;-66
2023/05/16 12:44:41;;;;;;;31.70;17.27;;;;;;;;;;5051011;28;20134;-66
2023/05/16 12:47:11;;;;;;;27.58;17.45;;;;;;;;;;5052185;28;20049;-66
2023/05/16 12:49:44;;;;;;;27.05;16.48;;;;;;;;;;5051055;28;20056;-68
2023/05/16 12:52:17;;;;;;;21.23;15.07;;;;;;;;;;5050333;28;20024;-66
2023/05/16 12:54:52;;;;;;;27.00;18.02;;;;;;;;;;5054205;28;20017;-66
2023/05/16 12:57:19;;;;;;;28.92;17.90;;;;;;;;;;5052061;28;20026;-67
2023/05/16 12:59:45;;;;;;;24.55;14.23;;;;;;;;;;5053783;28;20082;-67
2023/05/16 13:02:12;;;;;;;19.83;13.80;;;;;;;;;;5054999;28;20523;-65
2023/05/16 13:04:38;;;;;;;18.45;14.23;;;;;;;;;;5050188;28;20044;-66
2023/05/16 13:07:05;;;;;;;33.67;18.33;;;;;;;;;;5055803;28;20495;-66
2023/05/16 13:09:32;;;;;;;31.75;17.00;;;;;;;;;;5049288;28;20029;-65
2023/05/16 13:11:59;;;;;;;30.30;17.02;;;;;;;;;;5035905;28;20505;-66
2023/05/16 13:14:25;;;;;;;26.48;15.38;;;;;;;;;;5036611;28;20056;-67
2023/05/16 13:16:52;;;;;;;21.77;14.77;;;;;;;;;;5036739;28;20018;-67
2023/05/16 13:19:20;;;;;;;35.25;19.95;;;;;;;;;;5036187;28;20033;-65
2023/05/16 13:21:46;;;;;;;27.40;16.58;;;;;;;;;;5041668;28;20029;-66
2023/05/16 13:24:13;;;;;;;34.83;18.25;;;;;;;;;;5055276;28;20032;-67
2023/05/16 13:26:40;;;;;;;33.35;17.65;;;;;;;;;;5042293;28;20057;-66
2023/05/16 13:29:08;;;;;;;39.92;21.15;;;;;;;;;;5035793;28;20032;-64
2023/05/16 13:31:35;;;;;;;37.92;20.52;;;;;;;;;;5036266;28;20030;-65
2023/05/16 13:34:01;;;;;;;47.78;21.70;;;;;;;;;;5035885;28;20061;-66
2023/05/16 13:36:28;;;;;;;36.13;21.42;;;;;;;;;;5040914;28;20048;-66
2023/05/16 13:38:55;;;;;;;33.58;20.08;;;;;;;;;;5055761;28;20110;-65
2023/05/16 13:41:21;;;;;;;31.42;19.05;;;;;;;;;;5055835;28;20017;-66
2023/05/16 13:43:48;;;;;;;24.88;17.90;;;;;;;;;;5055733;28;20075;-66
2023/05/16 13:46:15;;;;;;;26.55;17.50;;;;;;;;;;5055464;28;20097;-67
2023/05/16 13:48:41;;;;;;;33.95;19.77;;;;;;;;;;5055555;28;20033;-65
2023/05/16 13:51:09;;;;;;;30.90;18.77;;;;;;;;;;5055754;28;20482;-66
2023/05/16 13:53:38;;;;;;;33.38;17.95;;;;;;;;;;5055765;28;20078;-66
2023/05/16 13:56:05;;;;;;;31.10;18.52;;;;;;;;;;5054916;28;20013;-66
2023/05/16 13:58:31;;;;;;;33.75;20.85;;;;;;;;;;5066283;28;20028;-66
2023/05/16 14:00:58;;;;;;;40.40;20.88;;;;;;;;;;5048633;28;20482;-66
2023/05/16 14:03:25;;;;;;;29.95;18.60;;;;;;;;;;5072010;28;20032;-66
2023/05/16 14:05:51;;;;;;;35.85;20.33;;;;;;;;;;5062916;28;20036;-68
2023/05/16 14:08:18;;;;;;;30.70;17.85;;;;;;;;;;5064291;28;20041;-66
2023/05/16 14:10:45;;;;;;;30.60;16.90;;;;;;;;;;5069900;28;20492;-66